createdAt,value
2023-02-03T00:02:07.392Z,52536.30
2023-02-03T00:04:39.116Z,52550.77
2023-02-03T00:07:10.276Z,52549.16
2023-02-03T00:09:41.421Z,52553.99
2023-02-03T00:12:12.767Z,52531.89
2023-02-03T00:14:44.160Z,52538.31
2023-02-03T00:17:16.478Z,52541.13
2023-02-03T00:19:50.801Z,52552.78
2023-02-03T00:22:21.912Z,52546.76
2023-02-03T00:24:53.621Z,52548.76
2023-02-03T00:27:24.943Z,52537.51
2023-02-03T00:29:56.405Z,52551.57
2023-02-03T00:32:27.604Z,52534.70
2023-02-03T00:34:59.171Z,52561.63
2023-02-03T00:37:30.397Z,52558.41
2023-02-03T00:40:01.566Z,52545.14
2023-02-03T00:42:32.780Z,52541.13
2023-02-03T00:45:03.748Z,52551.57
2023-02-03T00:47:35.550Z,52574.08
2023-02-03T00:50:07.637Z,52550.77
2023-02-03T00:52:40.275Z,52543.54
2023-02-03T00:55:11.829Z,52576.09
2023-02-03T00:57:43.531Z,52550.37
2023-02-03T01:00:15.896Z,52555.99
2023-02-03T01:02:47.081Z,52555.20
2023-02-03T01:05:18.520Z,52537.11
2023-02-03T01:07:51.689Z,52555.60
2023-02-03T01:10:22.813Z,52555.20
2023-02-03T01:12:55.319Z,52559.21
2023-02-03T01:15:27.115Z,52548.36
2023-02-03T01:18:00.581Z,52558.41
2023-02-03T01:20:32.370Z,52581.72
2023-02-03T01:23:03.720Z,52552.78
2023-02-03T01:25:34.975Z,52544.34
2023-02-03T01:28:07.344Z,52549.57
2023-02-03T01:30:38.858Z,52537.91
2023-02-03T01:33:11.260Z,52550.77
2023-02-03T01:35:42.706Z,52544.74
2023-02-03T01:38:14.258Z,52573.68
2023-02-03T01:40:46.377Z,52574.08
2023-02-03T01:43:31.146Z,52558.01
2023-02-03T01:46:04.371Z,52558.81
2023-02-03T01:48:35.597Z,52554.39
2023-02-03T01:51:06.724Z,52566.04
2023-02-03T01:53:39.519Z,52548.76
2023-02-03T01:56:10.806Z,52561.23
2023-02-03T01:58:42.468Z,52558.01
2023-02-03T02:01:13.669Z,52559.21
2023-02-03T02:03:45.916Z,52558.01
2023-02-03T02:06:16.937Z,52553.99
2023-02-03T02:08:48.569Z,52560.01
2023-02-03T02:11:21.609Z,52568.05
2023-02-03T02:13:53.272Z,52553.19
2023-02-03T02:16:29.481Z,52552.38
2023-02-03T02:19:04.800Z,52573.28
2023-02-03T02:21:54.688Z,52558.81
2023-02-03T02:24:43.302Z,52547.55
2023-02-03T02:27:18.743Z,52549.97
2023-02-03T02:30:03.091Z,52555.59
2023-02-03T02:32:37.862Z,52560.42
2023-02-03T02:35:11.059Z,52545.95
2023-02-03T02:37:46.673Z,52566.45
2023-02-03T02:40:20.823Z,52579.31
2023-02-03T02:42:56.608Z,52556.40
2023-02-03T02:45:29.187Z,52549.16
2023-02-03T02:48:01.355Z,52555.20
2023-02-03T02:50:33.345Z,52578.90
2023-02-03T02:53:04.738Z,52557.61
2023-02-03T02:55:38.380Z,52562.02
2023-02-03T02:58:11.707Z,52552.78
2023-02-03T03:00:42.706Z,52542.33
2023-02-03T03:03:18.547Z,52560.42
2023-02-03T03:05:51.301Z,52551.18
2023-02-03T03:08:24.399Z,52568.46
2023-02-03T03:10:55.464Z,52562.02
2023-02-03T03:13:28.939Z,52563.63
2023-02-03T03:16:00.486Z,52548.76
2023-02-03T03:18:32.230Z,52560.02
2023-02-03T03:21:07.223Z,52542.74
2023-02-03T03:23:39.889Z,52555.20
2023-02-03T03:26:13.403Z,52544.74
2023-02-03T03:28:47.184Z,52553.18
2023-02-03T03:31:18.803Z,52553.19
2023-02-03T03:33:50.247Z,52534.70
2023-02-03T03:36:23.974Z,52559.21
2023-02-03T03:38:56.713Z,52551.98
2023-02-03T03:41:30.653Z,52549.57
2023-02-03T03:44:03.173Z,52567.25
2023-02-03T03:46:35.299Z,52562.83
2023-02-03T03:49:06.770Z,52551.18
2023-02-03T03:51:41.226Z,52565.64
2023-02-03T03:54:13.118Z,52554.79
2023-02-03T03:56:47.372Z,52536.30
2023-02-03T03:59:18.790Z,52543.54
2023-02-03T04:01:50.403Z,52569.26
2023-02-03T04:04:21.559Z,52556.40
2023-02-03T04:06:54.105Z,52551.57
2023-02-03T04:09:25.281Z,52573.27
2023-02-03T04:12:06.494Z,52557.20
2023-02-03T04:14:39.113Z,52573.68
2023-02-03T04:17:10.302Z,52554.39
2023-02-03T04:19:42.299Z,52542.74
2023-02-03T04:22:13.258Z,52547.96
2023-02-03T04:24:44.604Z,52548.76
2023-02-03T04:27:15.957Z,52563.63
2023-02-03T04:29:48.005Z,52569.26
2023-02-03T04:32:18.959Z,52570.87
2023-02-03T04:34:51.196Z,52559.21
2023-02-03T04:37:23.413Z,52574.08
2023-02-03T04:39:55.754Z,52557.21
2023-02-03T04:42:26.793Z,52559.21
2023-02-03T04:44:58.145Z,52566.45
2023-02-03T04:47:29.105Z,52562.43
2023-02-03T04:50:00.827Z,52559.21
2023-02-03T04:52:31.968Z,52566.04
2023-02-03T04:55:04.260Z,52553.59
2023-02-03T04:57:35.608Z,52553.19
2023-02-03T05:00:07.677Z,52567.25
2023-02-03T05:02:39.687Z,52563.23
2023-02-03T05:05:11.031Z,52572.88
2023-02-03T05:07:41.948Z,52561.22
2023-02-03T05:10:13.245Z,52551.18
2023-02-03T05:12:44.490Z,52575.29
2023-02-03T05:15:15.572Z,52545.15
2023-02-03T05:17:48.048Z,52572.88
2023-02-03T05:20:19.391Z,52551.98
2023-02-03T05:22:50.470Z,52561.22
2023-02-03T05:25:22.316Z,52552.78
2023-02-03T05:27:54.442Z,52568.05
2023-02-03T05:30:26.056Z,52565.24
2023-02-03T05:32:58.229Z,52557.21
2023-02-03T05:35:30.591Z,52562.82
2023-02-03T05:38:02.111Z,52560.02
2023-02-03T05:40:51.248Z,52574.48
2023-02-03T05:43:24.098Z,52550.77
2023-02-03T05:45:55.211Z,52553.59
2023-02-03T05:48:26.207Z,52554.79
2023-02-03T05:50:57.406Z,52568.86
2023-02-03T05:53:30.707Z,52568.05
2023-02-03T05:56:03.702Z,52541.93
2023-02-03T05:58:34.831Z,52568.05
2023-02-03T06:01:06.894Z,52563.23
2023-02-03T06:03:37.887Z,52546.35
2023-02-03T06:06:09.513Z,52532.69
2023-02-03T06:08:40.396Z,52558.01
2023-02-03T06:11:11.545Z,52546.36
2023-02-03T06:13:49.298Z,52548.76
2023-02-03T06:16:20.636Z,52552.79
2023-02-03T06:18:51.785Z,52564.04
2023-02-03T06:21:23.169Z,52560.82
2023-02-03T06:23:54.893Z,52541.53
2023-02-03T06:26:26.445Z,52549.57
2023-02-03T06:28:57.363Z,52555.20
2023-02-03T06:31:28.979Z,52541.13
2023-02-03T06:34:02.770Z,52539.52
2023-02-03T06:36:34.790Z,52541.93
2023-02-03T06:39:06.092Z,52554.39
2023-02-03T06:41:38.201Z,52555.59
2023-02-03T06:44:09.364Z,52558.41
2023-02-03T06:46:40.918Z,52558.81
2023-02-03T06:49:12.186Z,52547.96
2023-02-03T06:51:43.287Z,52524.25
2023-02-03T06:54:14.324Z,52527.06
2023-02-03T06:56:45.603Z,52523.84
2023-02-03T06:59:16.590Z,52533.89
2023-02-03T07:01:47.554Z,52524.65
2023-02-03T07:04:18.661Z,52540.73
2023-02-03T07:06:49.731Z,52537.11
2023-02-03T07:09:20.674Z,52518.63
2023-02-03T07:11:51.718Z,52533.89
2023-02-03T07:14:22.642Z,52530.68
2023-02-03T07:16:54.578Z,52531.88
2023-02-03T07:19:26.150Z,52516.21
2023-02-03T07:21:57.962Z,52517.02
2023-02-03T07:24:29.187Z,52509.78
2023-02-03T07:27:01.081Z,52519.43
2023-02-03T07:29:33.316Z,52522.24
2023-02-03T07:32:04.904Z,52515.01
2023-02-03T07:34:36.194Z,52528.27
2023-02-03T07:37:07.346Z,52527.06
2023-02-03T07:39:38.403Z,52503.76
2023-02-03T07:42:09.601Z,52507.77
2023-02-03T07:44:40.921Z,52520.23
2023-02-03T07:47:31.880Z,52513.40
2023-02-03T07:50:03.672Z,52514.20
2023-02-03T07:52:35.063Z,52495.31
2023-02-03T07:55:06.087Z,52498.13
2023-02-03T07:57:37.497Z,52504.96
2023-02-03T08:00:10.104Z,52509.38
2023-02-03T08:02:43.963Z,52490.89
2023-02-03T08:05:15.241Z,52506.56
2023-02-03T08:07:46.530Z,52502.14
2023-02-03T08:10:18.897Z,52488.48
2023-02-03T08:12:50.003Z,52483.66
2023-02-03T08:15:21.129Z,52485.67
2023-02-03T08:17:52.898Z,52495.31
2023-02-03T08:20:23.787Z,52482.45
2023-02-03T08:22:55.529Z,52492.10
2023-02-03T08:25:26.501Z,52484.86
2023-02-03T08:27:59.552Z,52484.05
2023-02-03T08:30:31.089Z,52469.19
2023-02-03T08:33:02.449Z,52468.79
2023-02-03T08:35:35.422Z,52451.51
2023-02-03T08:38:06.452Z,52461.55
2023-02-03T08:40:37.964Z,52465.57
2023-02-03T08:43:09.258Z,52454.72
2023-02-03T08:45:40.767Z,52455.93
2023-02-03T08:48:13.940Z,52446.28
2023-02-03T08:50:45.440Z,52453.92
2023-02-03T08:53:16.613Z,52443.47
2023-02-03T08:55:49.657Z,52434.23
2023-02-03T08:58:21.038Z,52457.94
2023-02-03T09:00:53.510Z,52442.66
2023-02-03T09:03:24.715Z,52438.64
2023-02-03T09:05:55.804Z,52428.20
2023-02-03T09:08:27.761Z,52433.43
2023-02-03T09:10:59.106Z,52424.58
2023-02-03T09:13:30.841Z,52424.58
2023-02-03T09:16:02.837Z,52425.38
2023-02-03T09:18:33.979Z,52430.21
2023-02-03T09:21:05.210Z,52439.45
2023-02-03T09:23:36.439Z,52435.43
2023-02-03T09:26:08.031Z,52415.34
2023-02-03T09:28:40.023Z,52426.59
2023-02-03T09:31:13.610Z,52420.16
2023-02-03T09:33:45.321Z,52438.24
2023-02-03T09:36:16.390Z,52421.77
2023-02-03T09:38:47.583Z,52442.67
2023-02-03T09:41:21.588Z,52414.53
2023-02-03T09:43:53.795Z,52402.88
2023-02-03T09:46:25.552Z,52425.78
2023-02-03T09:48:58.408Z,52408.51
2023-02-03T09:51:31.413Z,52416.55
2023-02-03T09:54:04.898Z,52413.73
2023-02-03T09:56:36.465Z,52412.12
2023-02-03T09:59:07.415Z,52428.20
2023-02-03T10:01:39.624Z,52426.19
2023-02-03T10:04:13.482Z,52405.29
2023-02-03T10:06:44.983Z,52404.09
2023-02-03T10:09:30.728Z,52421.36
2023-02-03T10:12:18.849Z,52428.20
2023-02-03T10:14:55.295Z,52425.38
2023-02-03T10:17:30.671Z,52419.76
2023-02-03T10:20:04.150Z,52431.01
2023-02-03T10:22:36.052Z,52412.93
2023-02-03T10:25:08.236Z,52426.19
2023-02-03T10:27:39.838Z,52413.33
2023-02-03T10:30:16.552Z,52417.75
2023-02-03T10:32:48.076Z,52413.73
2023-02-03T10:35:19.603Z,52393.64
2023-02-03T10:37:51.168Z,52400.07
2023-02-03T10:40:26.528Z,52402.07
2023-02-03T10:43:16.165Z,52421.37
2023-02-03T10:45:47.443Z,52401.68
2023-02-03T10:48:18.690Z,52398.46
2023-02-03T10:50:50.700Z,52396.45
2023-02-03T10:53:25.698Z,52379.97
2023-02-03T10:56:03.541Z,52388.01
2023-02-03T10:58:35.520Z,52396.45
2023-02-03T11:01:11.096Z,52386.80
2023-02-03T11:03:42.746Z,52384.80
2023-02-03T11:06:14.513Z,52402.48
2023-02-03T11:08:45.902Z,52386.40
2023-02-03T11:11:23.870Z,52407.30
2023-02-03T11:13:56.522Z,52404.89
2023-02-03T11:16:27.991Z,52406.90
2023-02-03T11:18:59.782Z,52388.41
2023-02-03T11:21:31.600Z,52381.98
2023-02-03T11:24:08.679Z,52374.34
2023-02-03T11:26:41.583Z,52386.40
2023-02-03T11:29:23.838Z,52382.79
2023-02-03T11:31:55.818Z,52406.90
2023-02-03T11:34:29.114Z,52375.95
2023-02-03T11:37:00.356Z,52386.80
2023-02-03T11:39:36.449Z,52389.62
2023-02-03T11:42:11.572Z,52370.73
2023-02-03T11:44:42.720Z,52353.05
2023-02-03T11:47:14.519Z,52353.85
2023-02-03T11:49:50.496Z,52357.47
2023-02-03T11:52:34.427Z,52365.51
2023-02-03T11:55:08.198Z,52346.62
2023-02-03T11:57:41.940Z,52345.01
2023-02-03T12:00:17.247Z,52363.90
2023-02-03T12:03:07.958Z,52337.38
2023-02-03T12:05:42.601Z,52325.72
2023-02-03T12:08:19.661Z,52352.24
2023-02-03T12:10:53.895Z,52324.51
2023-02-03T12:13:32.043Z,52338.98
2023-02-03T12:16:09.734Z,52334.56
2023-02-03T12:18:48.987Z,52319.29
2023-02-03T12:21:25.448Z,52320.09
2023-02-03T12:23:57.957Z,52304.42
2023-02-03T12:26:30.995Z,52304.02
2023-02-03T12:29:04.393Z,52295.58
2023-02-03T12:31:36.982Z,52283.12
2023-02-03T12:34:11.603Z,52295.58
2023-02-03T12:36:44.197Z,52298.39
2023-02-03T12:39:17.433Z,52287.54
2023-02-03T12:41:49.964Z,52290.76
2023-02-03T12:44:21.986Z,52300.00
2023-02-03T12:46:55.249Z,52299.60
2023-02-03T12:49:31.999Z,52293.97
2023-02-03T12:52:03.848Z,52308.84
2023-02-03T12:54:36.551Z,52314.87
2023-02-03T12:57:12.603Z,52302.41
2023-02-03T12:59:44.087Z,52293.17
2023-02-03T13:02:18.219Z,52283.12
2023-02-03T13:04:51.378Z,52278.30
2023-02-03T13:07:22.979Z,52314.87
2023-02-03T13:09:56.749Z,52299.60
2023-02-03T13:12:30.192Z,52302.81
2023-02-03T13:15:05.693Z,52297.19
2023-02-03T13:17:39.718Z,52302.01
2023-02-03T13:20:14.999Z,52307.63
2023-02-03T13:22:46.320Z,52317.68
2023-02-03T13:25:19.252Z,52323.31
2023-02-03T13:27:50.929Z,52301.20
2023-02-03T13:30:29.738Z,52321.70
2023-02-03T13:33:22.443Z,52300.80
2023-02-03T13:35:56.259Z,52316.88
2023-02-03T13:38:39.027Z,52301.61
2023-02-03T13:41:14.467Z,52306.03
2023-02-03T13:43:48.371Z,52305.63
2023-02-03T13:46:23.710Z,52316.88
2023-02-03T13:48:55.537Z,52314.07
2023-02-03T13:51:29.508Z,52316.88
2023-02-03T13:54:03.136Z,52307.23
2023-02-03T13:56:36.051Z,52314.07
2023-02-03T13:59:07.853Z,52328.13
2023-02-03T14:01:40.296Z,52317.28
2023-02-03T14:04:35.106Z,52314.47
2023-02-03T14:07:07.592Z,52331.34
2023-02-03T14:09:39.865Z,52344.21
2023-02-03T14:12:24.895Z,52336.16
2023-02-03T14:15:05.070Z,52338.98
2023-02-03T14:18:08.774Z,52337.38
2023-02-03T14:20:41.045Z,52338.58
2023-02-03T14:23:14.693Z,52369.52
2023-02-03T14:25:47.843Z,52383.19
2023-02-03T14:28:24.393Z,52377.16
2023-02-03T14:31:06.858Z,52393.63
2023-02-03T14:33:55.420Z,52386.40
2023-02-03T14:36:30.758Z,52406.90
2023-02-03T14:39:03.048Z,52408.91
2023-02-03T14:41:38.310Z,52409.31
2023-02-03T14:44:11.170Z,52429.80
2023-02-03T14:46:53.629Z,52415.34
2023-02-03T14:49:35.224Z,52422.57
2023-02-03T14:52:10.662Z,52416.14
2023-02-03T14:54:46.651Z,52423.78
2023-02-03T14:57:21.733Z,52442.26
2023-02-03T14:59:56.702Z,52426.99
2023-02-03T15:02:28.808Z,52441.46
2023-02-03T15:05:13.538Z,52438.65
2023-02-03T15:07:49.589Z,52436.64
2023-02-03T15:10:21.669Z,52438.65
2023-02-03T15:12:53.465Z,52448.29
2023-02-03T15:15:26.320Z,52445.88
2023-02-03T15:17:57.897Z,52443.48
2023-02-03T15:20:31.129Z,52454.32
2023-02-03T15:23:03.282Z,52430.61
2023-02-03T15:25:35.023Z,52439.86
2023-02-03T15:28:19.604Z,52442.26
2023-02-03T15:30:50.889Z,52452.71
2023-02-03T15:33:23.509Z,52450.30
2023-02-03T15:35:56.025Z,52463.56
2023-02-03T15:38:27.740Z,52451.10
2023-02-03T15:40:59.781Z,52463.96
2023-02-03T15:43:32.976Z,52451.10
2023-02-03T15:46:09.002Z,52437.04
2023-02-03T15:48:40.767Z,52448.70
2023-02-03T15:51:12.973Z,52459.54
2023-02-03T15:53:53.667Z,52453.92
2023-02-03T15:56:26.818Z,52457.54
2023-02-03T15:58:58.974Z,52444.68
2023-02-03T16:01:30.114Z,52449.90
2023-02-03T16:04:01.135Z,52460.75
2023-02-03T16:06:36.205Z,52459.54
2023-02-03T16:09:07.865Z,52467.18
2023-02-03T16:11:39.588Z,52469.19
2023-02-03T16:14:12.037Z,52445.48
2023-02-03T16:16:52.169Z,52453.11
2023-02-03T16:19:38.573Z,52455.52
2023-02-03T16:22:23.304Z,52460.35
2023-02-03T16:24:54.930Z,52446.69
2023-02-03T16:27:35.776Z,52457.54
2023-02-03T16:30:40.620Z,52439.05
2023-02-03T16:33:34.004Z,52459.54
2023-02-03T16:36:28.536Z,52460.34
2023-02-03T16:39:17.329Z,52459.54
2023-02-03T16:42:06.111Z,52460.75
2023-02-03T16:44:55.538Z,52459.95
2023-02-03T16:47:45.857Z,52461.15
2023-02-03T16:50:38.716Z,52455.52
2023-02-03T16:53:13.265Z,52460.75
2023-02-03T16:55:44.412Z,52463.56
2023-02-03T16:58:15.668Z,52462.36
2023-02-03T17:00:47.383Z,52457.13
2023-02-03T17:03:19.644Z,52460.75
2023-02-03T17:05:51.584Z,52453.91
2023-02-03T17:08:23.323Z,52477.63
2023-02-03T17:10:54.805Z,52457.53
2023-02-03T17:13:26.063Z,52476.42
2023-02-03T17:15:57.503Z,52442.66
2023-02-03T17:18:29.052Z,52467.58
2023-02-03T17:21:02.828Z,52464.77
2023-02-03T17:23:34.553Z,52468.39
2023-02-03T17:26:06.222Z,52472.00
2023-02-03T17:28:39.704Z,52463.56
2023-02-03T17:31:13.383Z,52476.82
2023-02-03T17:33:44.643Z,52480.45
2023-02-03T17:36:16.300Z,52484.86
2023-02-03T17:55:34.939Z,52484.86
2023-02-03T17:58:06.449Z,52487.27
2023-02-03T18:00:37.340Z,52480.45
2023-02-03T18:03:08.452Z,52485.66
2023-02-03T18:05:39.690Z,52490.49
2023-02-03T18:08:16.520Z,52492.50
2023-02-03T18:10:51.957Z,52483.66
2023-02-03T18:13:26.796Z,52484.86
2023-02-03T18:15:58.613Z,52497.32
2023-02-03T18:18:29.787Z,52494.91
2023-02-03T18:21:01.425Z,52486.87
2023-02-03T18:23:33.460Z,52499.73
2023-02-03T18:26:04.652Z,52521.84
2023-02-03T18:28:36.565Z,52496.92
2023-02-03T18:31:09.694Z,52496.11
2023-02-03T18:33:41.016Z,52502.55
2023-02-03T18:36:13.129Z,52515.41
2023-02-03T18:38:44.977Z,52485.66
2023-02-03T18:41:17.271Z,52483.66
2023-02-03T18:43:49.671Z,52500.94
2023-02-03T18:46:21.974Z,52496.11
2023-02-03T18:48:53.289Z,52499.33
2023-02-03T18:51:25.062Z,52488.48
2023-02-03T18:53:59.142Z,52492.10
2023-02-03T18:56:35.370Z,52491.29
2023-02-03T18:59:08.163Z,52497.32
2023-02-03T19:01:40.142Z,52507.77
2023-02-03T19:04:12.076Z,52502.95
2023-02-03T19:06:45.996Z,52493.71
2023-02-03T19:09:18.269Z,52488.07
2023-02-03T19:11:49.630Z,52483.26
2023-02-03T19:14:21.605Z,52480.45
2023-02-03T19:16:53.396Z,52484.86
2023-02-03T19:19:24.663Z,52491.70
2023-02-03T19:21:55.681Z,52495.31
2023-02-03T19:24:27.355Z,52492.90
2023-02-03T19:26:58.538Z,52496.52
2023-02-03T19:29:29.543Z,52492.09
2023-02-03T19:32:00.991Z,52500.13
2023-02-03T19:34:32.804Z,52500.14
2023-02-03T19:37:05.290Z,52493.70
2023-02-03T19:39:37.405Z,52498.52
2023-02-03T19:42:11.863Z,52482.85
2023-02-03T19:44:43.076Z,52500.94
2023-02-03T19:47:14.051Z,52502.95
2023-02-03T19:49:45.575Z,52486.87
2023-02-03T19:52:16.680Z,52503.35
2023-02-03T19:54:48.252Z,52485.27
2023-02-03T19:57:19.365Z,52494.11
2023-02-03T19:59:50.340Z,52495.31
2023-02-03T20:02:21.347Z,52512.19
2023-02-03T20:04:52.760Z,52505.36
2023-02-03T20:07:25.705Z,52498.13
2023-02-03T20:09:56.764Z,52527.46
2023-02-03T20:12:28.473Z,52507.37
2023-02-03T20:15:01.610Z,52515.81
2023-02-03T20:17:36.965Z,52514.20
2023-02-03T20:20:08.663Z,52496.12
2023-02-03T20:22:40.014Z,52510.59
2023-02-03T20:25:12.216Z,52511.79
2023-02-03T20:27:43.403Z,52516.61
2023-02-03T20:30:15.082Z,52491.29
2023-02-03T20:32:46.287Z,52514.20
2023-02-03T20:35:17.678Z,52523.84
2023-02-03T20:37:48.632Z,52496.52
2023-02-03T20:40:20.312Z,52510.59
2023-02-03T20:42:51.362Z,52507.37
2023-02-03T20:45:23.050Z,52504.96
2023-02-03T20:47:54.586Z,52505.76
2023-02-03T20:50:37.273Z,52496.52
2023-02-03T20:53:14.554Z,52517.01
2023-02-03T20:55:45.613Z,52508.57
2023-02-03T20:58:19.194Z,52503.75
2023-02-03T21:00:50.683Z,52505.36
2023-02-03T21:03:39.211Z,52504.96
2023-02-03T21:06:15.268Z,52502.54
2023-02-03T21:08:46.973Z,52492.50
2023-02-03T21:11:19.147Z,52505.76
2023-02-03T21:13:50.206Z,52506.16
2023-02-03T21:16:21.848Z,52506.56
2023-02-03T21:18:53.824Z,52528.27
2023-02-03T21:21:28.288Z,52506.97
2023-02-03T21:24:01.242Z,52508.17
2023-02-03T21:26:34.016Z,52484.05
2023-02-03T21:29:05.631Z,52516.21
2023-02-03T21:31:39.802Z,52515.00
2023-02-03T21:34:17.621Z,52505.76
2023-02-03T21:36:49.128Z,52501.34
2023-02-03T21:39:25.360Z,52504.96
2023-02-03T21:41:56.583Z,52513.39
2023-02-03T21:44:31.584Z,52498.52
2023-02-03T21:47:03.402Z,52507.37
2023-02-03T21:49:34.856Z,52503.76
2023-02-03T21:52:06.405Z,52505.36
2023-02-03T21:54:41.948Z,52501.34
2023-02-03T21:57:14.862Z,52499.73
2023-02-03T21:59:47.147Z,52519.82
2023-02-03T22:02:24.129Z,52517.42
2023-02-03T22:04:55.057Z,52510.59
2023-02-03T22:07:26.526Z,52504.16
2023-02-03T22:10:00.728Z,52506.16
2023-02-03T22:12:36.816Z,52504.96
2023-02-03T22:15:10.906Z,52499.74
2023-02-03T22:17:42.771Z,52494.51
2023-02-03T22:20:14.998Z,52495.71
2023-02-03T22:22:46.152Z,52508.98
2023-02-03T22:25:19.005Z,52488.07
2023-02-03T22:27:52.695Z,52511.39
2023-02-03T22:30:24.006Z,52503.76
2023-02-03T22:32:55.542Z,52499.73
2023-02-03T22:35:26.540Z,52514.20
2023-02-03T22:37:58.042Z,52510.18
2023-02-03T22:40:29.415Z,52517.82
2023-02-03T22:43:01.180Z,52500.13
2023-02-03T22:45:32.670Z,52475.62
2023-02-03T22:48:03.744Z,52513.00
2023-02-03T22:50:36.748Z,52480.45
2023-02-03T22:53:09.550Z,52499.33
2023-02-03T22:55:41.184Z,52497.73
2023-02-03T22:58:12.547Z,52507.77
2023-02-03T23:00:43.654Z,52516.21
2023-02-03T23:03:14.787Z,52508.98
2023-02-03T23:05:46.147Z,52517.82
2023-02-03T23:08:17.284Z,52514.20
2023-02-03T23:10:48.422Z,52502.14
2023-02-03T23:13:19.553Z,52510.58
2023-02-03T23:15:51.107Z,52503.75
2023-02-03T23:18:22.720Z,52510.59
2023-02-03T23:20:53.903Z,52516.61
2023-02-03T23:23:25.216Z,52523.84
2023-02-03T23:25:56.510Z,52521.03
2023-02-03T23:28:27.906Z,52522.64
2023-02-03T23:30:59.111Z,52496.92
2023-02-03T23:33:30.385Z,52522.24
2023-02-03T23:36:01.778Z,52519.02
2023-02-03T23:38:33.740Z,52541.93
2023-02-03T23:41:04.780Z,52498.52
2023-02-03T23:43:36.344Z,52492.90
2023-02-03T23:46:08.045Z,52514.60
2023-02-03T23:48:41.680Z,52506.16
2023-02-03T23:51:14.892Z,52522.24
2023-02-03T23:53:46.323Z,52508.17
2023-02-03T23:56:18.191Z,52501.74
2023-02-03T23:58:50.349Z,52526.66
